Time;durP1;ratioP1;P1;durP2;ratioP2;P2;SDS_P1;SDS_P2;PMS_P1;PMS_P2;Temp;Humidity;BMP_temperature;BMP_pressure;BME280_temperature;BME280_humidity;BME280_pressure;Samples;Min_cycle;Max_cycle;Signal;HPM_P1;HPM_P2
2024/03/03 00:00:27;;;;;;;1.37;1.20;;;16.50;99.90;;;16.31;46.08;99518.03;6106876;22;97384;-37
2024/03/03 00:02:52;;;;;;;0.67;0.57;;;16.50;99.90;;;16.34;46.23;99517.78;6075763;22;97542;-36
2024/03/03 00:05:19;;;;;;;1.80;1.30;;;16.50;99.90;;;16.28;45.72;99519.13;6075257;22;101765;-37
2024/03/03 00:07:48;;;;;;;4.07;1.57;;;16.40;99.90;;;16.26;46.13;99509.56;6117264;22;97837;-37
2024/03/03 00:10:13;;;;;;;1.40;0.90;;;16.30;99.90;;;16.24;46.46;99506.16;6110616;22;97745;-37
2024/03/03 00:12:39;;;;;;;4.47;2.57;;;16.20;99.90;;;16.18;46.08;99507.47;6095090;22;97907;-36
2024/03/03 00:15:05;;;;;;;4.97;2.83;;;16.20;99.90;;;15.95;46.57;99517.22;6092864;22;121017;-36
2024/03/03 00:17:31;;;;;;;1.13;0.70;;;15.90;99.90;;;16.01;46.90;99505.25;6091041;22;98957;-38
2024/03/03 00:19:57;;;;;;;4.33;2.43;;;15.90;99.90;;;16.01;46.59;99511.44;6031306;22;97623;-36
2024/03/03 00:22:25;;;;;;;1.20;1.10;;;15.90;99.90;;;16.04;46.99;99510.34;6067865;22;103632;-36
2024/03/03 00:24:51;;;;;;;4.17;1.10;;;15.90;99.90;;;16.03;46.55;99508.66;6061024;22;121240;-36
2024/03/03 00:27:21;;;;;;;2.67;1.50;;;16.00;99.90;;;16.06;46.64;99509.28;6093267;22;98111;-37
2024/03/03 00:29:47;;;;;;;2.80;1.90;;;16.00;99.90;;;15.91;47.03;99506.91;6106998;22;97603;-37
2024/03/03 00:32:12;;;;;;;2.80;1.87;;;15.80;99.90;;;15.90;47.11;99507.88;6094455;22;97471;-37
2024/03/03 00:34:43;;;;;;;1.30;1.07;;;15.70;99.90;;;15.92;47.41;99506.81;6070464;22;123197;-38
2024/03/03 00:37:10;;;;;;;4.23;2.70;;;15.80;99.90;;;15.77;46.30;99516.81;6079435;22;101961;-38
2024/03/03 00:39:37;;;;;;;2.13;1.47;;;15.70;99.90;;;15.77;47.48;99516.81;6098717;22;97117;-36
2024/03/03 00:42:04;;;;;;;5.33;1.40;;;15.60;99.90;;;15.81;47.54;99508.59;6072167;22;112684;-35
2024/03/03 00:44:35;;;;;;;3.10;1.53;;;15.60;99.90;;;15.82;47.51;99510.28;6079431;22;99933;-36
2024/03/03 00:47:00;;;;;;;5.73;2.13;;;15.70;99.90;;;15.75;46.41;99510.72;6106754;22;101746;-36
2024/03/03 00:49:26;;;;;;;2.33;1.63;;;15.60;99.90;;;15.78;47.53;99515.00;6096147;22;110662;-36
2024/03/03 00:51:54;;;;;;;3.40;2.20;;;15.60;99.90;;;15.74;47.24;99513.50;6082009;22;97492;-38
2024/03/03 00:54:20;;;;;;;1.93;1.43;;;15.60;99.90;;;15.76;47.69;99512.44;6126023;22;98978;-38
2024/03/03 00:56:46;;;;;;;1.57;0.90;;;15.60;99.90;;;15.73;47.66;99512.66;6062681;22;119040;-37
2024/03/03 00:59:11;;;;;;;2.27;1.20;;;15.60;99.90;;;15.77;47.94;99503.50;6106805;22;105568;-35
2024/03/03 01:01:37;;;;;;;3.00;1.57;;;15.70;99.90;;;15.82;47.42;99499.66;6108362;22;97573;-39
2024/03/03 01:04:03;;;;;;;1.97;1.27;;;15.80;99.90;;;15.86;47.42;99506.44;6107168;22;116508;-38
2024/03/03 01:06:29;;;;;;;3.03;2.27;;;15.80;99.90;;;15.89;46.66;99511.50;6109744;22;97891;-35
2024/03/03 01:08:54;;;;;;;4.60;2.33;;;15.90;99.90;;;15.87;46.25;99513.44;6105565;22;108852;-37
2024/03/03 01:11:23;;;;;;;1.83;1.17;;;15.90;99.90;;;15.81;46.64;99513.91;6102441;22;115157;-57
2024/03/03 01:13:49;;;;;;;1.27;1.17;;;15.80;99.90;;;15.82;47.74;99495.19;6092573;22;100290;-36
2024/03/03 01:16:15;;;;;;;1.20;0.90;;;15.70;99.90;;;15.85;47.43;99510.06;6105802;22;119203;-35
2024/03/03 01:18:43;;;;;;;3.20;1.73;;;15.70;99.90;;;15.89;47.51;99501.72;6108417;22;97310;-36
2024/03/03 01:21:09;;;;;;;2.27;1.00;;;15.80;99.90;;;15.95;47.42;99500.41;6095541;22;106875;-36
2024/03/03 01:23:35;;;;;;;0.90;0.90;;;16.00;99.90;;;15.99;47.33;99491.25;6056702;22;122718;-36
2024/03/03 01:26:01;;;;;;;1.53;1.20;;;16.10;99.90;;;16.03;47.04;99493.53;6094255;22;117606;-38
2024/03/03 01:28:26;;;;;;;1.53;1.10;;;16.10;99.90;;;16.10;47.11;99498.41;6104294;22;99502;-36
2024/03/03 01:30:52;;;;;;;1.50;1.03;;;16.20;99.90;;;16.12;47.05;99496.47;6104517;22;116310;-37
2024/03/03 01:33:18;;;;;;;1.60;1.10;;;16.30;99.90;;;16.14;46.86;99495.38;6102155;22;109199;-37
2024/03/03 01:35:43;;;;;;;1.17;1.07;;;16.30;99.90;;;16.16;46.81;99493.44;6088119;22;107066;-38
2024/03/03 01:38:12;;;;;;;1.40;1.03;;;16.40;99.90;;;16.19;46.67;99493.19;6117334;22;109128;-37
2024/03/03 01:40:38;;;;;;;1.27;0.97;;;16.40;99.90;;;16.22;46.57;99487.66;6072491;22;114741;-36
2024/03/03 01:43:07;;;;;;;1.00;0.90;;;16.40;99.90;;;16.27;46.57;99498.78;6104172;22;126669;-38
2024/03/03 01:45:33;;;;;;;1.43;0.80;;;16.50;99.90;;;16.32;46.61;99493.94;6109314;22;97930;-36
2024/03/03 01:47:59;;;;;;;1.67;1.23;;;16.50;99.90;;;16.31;46.34;99486.94;6108339;22;109936;-36
2024/03/03 01:50:28;;;;;;;1.13;0.90;;;16.50;99.90;;;16.27;46.47;99490.81;6106933;22;104934;-37
2024/03/03 01:52:55;;;;;;;1.43;1.00;;;16.50;99.90;;;16.28;46.49;99489.84;6071168;22;98862;-37
2024/03/03 01:55:22;;;;;;;1.53;1.13;;;16.50;99.90;;;16.34;46.58;99485.84;6092127;22;98799;-37
2024/03/03 01:57:52;;;;;;;1.53;1.20;;;16.60;99.90;;;16.32;46.22;99483.31;6107854;22;98198;-37
2024/03/03 02:00:28;;;;;;;1.87;1.10;;;16.50;99.90;;;16.37;46.45;99482.97;6106438;22;97456;-36
2024/03/03 02:02:58;;;;;;;2.07;1.03;;;16.60;99.90;;;16.38;46.50;99481.16;6103816;22;98760;-36
2024/03/03 02:05:24;;;;;;;1.37;1.00;;;16.60;99.90;;;16.36;46.26;99482.13;6094055;22;97519;-39
2024/03/03 02:07:50;;;;;;;1.43;1.30;;;16.60;99.90;;;16.39;46.24;99488.16;6106390;22;99146;-39
2024/03/03 02:10:16;;;;;;;1.90;1.37;;;16.60;99.90;;;16.37;44.54;99490.97;6080616;22;99299;-35
2024/03/03 02:12:45;;;;;;;1.47;1.03;;;16.60;99.90;;;16.37;46.23;99480.31;6099465;22;104132;-37
2024/03/03 02:15:11;;;;;;;1.93;1.30;;;16.50;99.90;;;16.39;46.42;99488.16;6104620;22;98216;-37
2024/03/03 02:17:37;;;;;;;1.83;1.07;;;16.50;99.90;;;16.39;46.46;99488.16;6105969;22;101022;-36
2024/03/03 02:20:04;;;;;;;1.83;1.00;;;16.50;99.90;;;16.38;46.34;99481.16;6107008;22;101981;-37
2024/03/03 02:22:30;;;;;;;1.80;1.30;;;16.50;99.90;;;16.36;46.26;99482.13;6038528;22;99984;-38
2024/03/03 02:24:59;;;;;;;1.30;1.20;;;16.50;99.90;;;16.38;46.22;99482.00;6072717;22;101214;-38
2024/03/03 02:27:24;;;;;;;1.30;0.90;;;16.50;99.90;;;16.35;46.29;99483.09;6119606;22;108891;-36
2024/03/03 02:29:50;;;;;;;1.50;1.10;;;16.50;99.90;;;16.35;46.41;99480.44;6093186;22;107943;-40
2024/03/03 02:32:16;;;;;;;1.17;0.90;;;16.50;99.90;;;16.33;46.42;99478.84;6105323;22;122201;-37
2024/03/03 02:34:42;;;;;;;1.83;1.20;;;16.40;99.90;;;16.33;46.31;99479.69;6079608;22;111073;-35
2024/03/03 02:37:07;;;;;;;1.50;0.90;;;16.40;99.90;;;16.32;46.43;99479.81;6107859;22;115604;-37
2024/03/03 02:39:33;;;;;;;1.63;1.13;;;16.50;99.90;;;16.32;46.29;99485.13;6094335;22;98323;-36
2024/03/03 02:42:03;;;;;;;1.23;0.90;;;16.50;99.90;;;16.34;46.62;99476.03;6108651;22;100161;-38
2024/03/03 02:44:31;;;;;;;2.03;1.00;;;16.50;99.90;;;16.33;46.65;99479.69;6039706;22;102806;-38
2024/03/03 02:46:57;;;;;;;1.67;0.90;;;16.50;99.90;;;16.34;46.17;99476.03;6103362;22;97369;-38
2024/03/03 02:49:23;;;;;;;2.30;1.50;;;16.50;99.90;;;16.35;46.62;99476.94;6108678;22;113519;-36
2024/03/03 02:51:54;;;;;;;1.33;1.00;;;16.50;99.90;;;16.35;46.24;99483.09;6107197;22;122136;-37
2024/03/03 02:54:21;;;;;;;1.07;0.93;;;16.50;99.90;;;16.36;46.18;99484.78;6109996;22;98840;-36
2024/03/03 02:56:46;;;;;;;2.57;1.47;;;16.60;99.90;;;16.39;45.90;99478.38;6074865;22;97076;-36
2024/03/03 02:59:12;;;;;;;2.27;1.33;;;16.60;99.90;;;16.36;45.47;99482.13;6102815;22;100721;-37
2024/03/03 03:01:38;;;;;;;1.50;1.20;;;16.50;99.90;;;16.35;46.51;99483.09;6098541;22;98625;-36
2024/03/03 03:04:04;;;;;;;1.53;1.07;;;16.40;99.90;;;16.33;46.31;99463.72;6090563;22;106632;-35
2024/03/03 03:06:29;;;;;;;2.53;1.10;;;16.40;99.90;;;16.36;46.46;99458.19;6075441;22;97363;-37
2024/03/03 03:08:55;;;;;;;2.27;1.40;;;16.50;99.90;;;16.34;46.17;99453.91;6098888;22;97533;-35
2024/03/03 03:11:21;;;;;;;4.67;1.83;;;16.50;99.90;;;16.33;46.46;99453.06;6105115;22;108644;-37
2024/03/03 03:13:50;;;;;;;1.57;1.20;;;16.40;99.90;;;16.34;46.38;99459.25;6094184;22;100921;-39
2024/03/03 03:16:16;;;;;;;1.37;1.10;;;16.40;99.90;;;16.32;46.45;99456.69;6075939;22;98280;-37
2024/03/03 03:18:44;;;;;;;2.20;1.40;;;16.40;99.90;;;16.29;46.32;99470.25;6113236;22;108540;-40
2024/03/03 03:21:10;;;;;;;1.77;1.17;;;16.30;99.90;;;16.24;46.58;99467.09;6096889;22;102728;-37
2024/03/03 03:23:36;;;;;;;1.53;1.10;;;16.20;99.90;;;16.23;46.87;99457.44;6110356;22;113207;-38
2024/03/03 03:26:01;;;;;;;1.50;1.20;;;16.20;99.90;;;16.21;46.72;99454.06;6100719;22;103612;-38
2024/03/03 03:28:31;;;;;;;3.67;2.50;;;16.20;99.90;;;16.19;45.82;99455.97;6109584;22;97437;-43
2024/03/03 03:30:56;;;;;;;2.23;1.40;;;16.20;99.90;;;16.15;46.93;99464.31;6097756;22;97932;-44
2024/03/03 03:33:25;;;;;;;8.53;3.23;;;16.10;99.90;;;16.05;46.24;99464.16;6096835;22;98623;-40
2024/03/03 03:35:50;;;;;;;6.23;3.57;;;16.00;99.90;;;15.80;46.17;99475.00;6109874;22;97465;-38
2024/03/03 03:38:19;;;;;;;5.13;3.33;;;15.70;99.90;;;15.69;47.01;99489.94;6083985;22;97546;-37
2024/03/03 03:40:44;;;;;;;4.50;2.43;;;15.50;99.90;;;15.56;48.23;99494.44;6100853;22;98044;-38
2024/03/03 03:43:10;;;;;;;4.80;2.90;;;15.30;99.90;;;15.55;48.17;99492.75;6113130;22;126928;-37
2024/03/03 03:45:36;;;;;;;2.27;1.10;;;15.30;99.90;;;15.56;48.43;99494.44;6090771;22;97260;-40
2024/03/03 03:48:05;;;;;;;5.10;2.60;;;15.30;99.90;;;15.47;46.95;99489.78;6067385;22;97619;-38
2024/03/03 03:50:34;;;;;;;3.43;1.57;;;15.30;99.90;;;15.43;48.51;99494.50;6096028;22;103412;-37
2024/03/03 03:52:59;;;;;;;4.53;2.13;;;15.20;99.90;;;15.41;48.76;99500.88;6089018;22;125746;-38
2024/03/03 03:55:25;;;;;;;3.93;2.53;;;15.20;99.90;;;15.44;48.51;99505.97;6048726;22;108550;-39
2024/03/03 03:57:51;;;;;;;3.37;1.87;;;15.20;99.90;;;15.39;48.73;99508.13;6039028;22;97530;-38
2024/03/03 04:00:17;;;;;;;2.10;1.20;;;15.20;99.90;;;15.42;48.79;99514.06;6061184;22;112108;-37
2024/03/03 04:02:43;;;;;;;6.40;3.57;;;15.20;99.90;;;15.34;48.18;99504.97;6082933;22;98482;-36
2024/03/03 04:05:14;;;;;;;4.30;1.83;;;15.20;99.90;;;15.39;48.59;99513.44;6069399;22;113813;-38
2024/03/03 04:07:40;;;;;;;3.37;1.80;;;15.20;99.90;;;15.35;48.87;99507.50;6123078;22;97339;-37
2024/03/03 04:10:07;;;;;;;5.33;3.03;;;15.20;99.90;;;15.33;48.07;99513.88;6102349;22;114940;-36
2024/03/03 04:12:36;;;;;;;2.97;1.57;;;15.20;99.90;;;15.34;49.16;99512.94;6096953;22;99398;-37
2024/03/03 04:15:01;;;;;;;2.73;1.40;;;15.20;99.90;;;15.42;49.20;99507.91;6107406;22;97591;-37
2024/03/03 04:17:27;;;;;;;5.17;2.80;;;15.20;99.90;;;15.39;48.48;99521.41;6065201;22;97407;-38
2024/03/03 04:19:53;;;;;;;8.30;3.50;;;15.20;99.90;;;15.22;49.05;99532.44;6121643;22;119668;-38
2024/03/03 04:22:23;;;;;;;6.70;2.77;;;15.00;99.90;;;15.18;49.16;99532.63;6093435;22;101207;-37
2024/03/03 04:24:49;;;;;;;5.90;3.00;;;15.00;99.90;;;15.11;48.99;99520.75;6069363;22;97372;-37
2024/03/03 04:27:15;;;;;;;3.90;2.03;;;14.90;99.90;;;15.16;49.63;99529.22;6080677;22;97603;-39
2024/03/03 04:29:45;;;;;;;2.73;1.37;;;14.90;99.90;;;15.07;49.40;99527.25;6112486;22;114852;-37
2024/03/03 04:32:14;;;;;;;5.93;3.30;;;14.80;99.90;;;15.02;49.60;99532.03;6093176;22;104754;-36
2024/03/03 04:34:40;;;;;;;6.50;3.50;;;14.70;99.90;;;15.03;49.73;99536.38;6120003;22;97553;-38
2024/03/03 04:37:07;;;;;;;3.97;2.00;;;14.80;99.90;;;15.03;49.85;99532.88;6078669;22;97440;-38
2024/03/03 04:39:36;;;;;;;8.00;4.10;;;14.70;99.90;;;15.01;49.19;99530.34;6087363;22;98450;-37
2024/03/03 04:42:03;;;;;;;3.80;1.97;;;14.70;99.90;;;15.00;49.59;99528.66;6030594;22;102641;-38
2024/03/03 04:44:32;;;;;;;4.67;2.50;;;14.70;99.90;;;14.99;49.99;99531.41;6068146;22;97335;-38
2024/03/03 04:47:09;;;;;;;7.87;2.77;;;14.70;99.90;;;15.00;49.54;99538.41;6095018;22;115242;-38
2024/03/03 04:49:35;;;;;;;8.43;4.13;;;14.70;99.90;;;14.79;50.29;99535.50;6081836;22;103494;-37
2024/03/03 04:52:01;;;;;;;7.67;3.40;;;14.60;99.90;;;14.73;50.83;99542.06;6078205;22;98636;-37
2024/03/03 04:54:29;;;;;;;8.33;4.10;;;14.50;99.90;;;14.61;50.69;99536.75;6078088;22;115347;-38
2024/03/03 04:56:55;;;;;;;10.80;3.90;;;14.30;99.90;;;14.54;51.07;99534.56;6095751;22;97592;-36
2024/03/03 04:59:21;;;;;;;6.77;4.20;;;14.30;99.90;;;14.72;51.09;99534.22;6081749;22;113437;-38
2024/03/03 05:01:46;;;;;;;6.73;3.73;;;14.40;99.90;;;14.64;51.09;99531.28;6120619;22;115888;-37
2024/03/03 05:04:13;;;;;;;7.30;4.40;;;14.30;99.90;;;14.51;51.00;99537.44;6086483;22;117611;-36
2024/03/03 05:06:45;;;;;;;7.30;3.93;;;14.30;99.90;;;14.36;51.77;99543.75;6074968;22;99524;-38
2024/03/03 05:09:11;;;;;;;10.83;4.50;;;14.10;99.90;;;14.30;51.43;99544.16;6074606;22;104971;-38
2024/03/03 05:11:37;;;;;;;8.37;5.03;;;14.00;99.90;;;14.29;51.80;99553.06;6099108;22;97527;-39
2024/03/03 05:14:06;;;;;;;13.10;4.33;;;14.00;99.90;;;14.29;52.20;99547.78;6080236;22;116363;-38
2024/03/03 05:16:31;;;;;;;3.47;2.63;;;13.90;99.90;;;14.47;51.71;99549.22;6093545;22;97554;-38
2024/03/03 05:18:57;;;;;;;2.20;1.53;;;14.10;99.90;;;14.66;51.34;99545.28;6069477;22;109661;-39
2024/03/03 05:21:26;;;;;;;2.87;1.97;;;14.40;99.90;;;14.80;51.07;99539.84;6077494;22;99718;-38
2024/03/03 05:23:52;;;;;;;7.13;4.20;;;14.60;99.90;;;14.67;50.68;99552.28;6080638;22;97532;-37
2024/03/03 05:26:20;;;;;;;6.10;3.30;;;14.50;99.90;;;14.58;51.21;99554.59;6078010;22;107857;-39
2024/03/03 05:28:46;;;;;;;6.27;3.80;;;14.40;99.90;;;14.55;51.64;99560.13;6104595;22;97815;-38
2024/03/03 05:31:12;;;;;;;5.13;2.77;;;14.30;99.90;;;14.57;51.78;99552.91;6064927;22;98257;-45
2024/03/03 05:33:38;;;;;;;10.03;4.17;;;14.20;99.90;;;14.51;51.70;99555.16;6117637;22;112009;-36
2024/03/03 05:36:04;;;;;;;7.50;4.13;;;14.20;99.90;;;14.54;51.82;99553.13;6080685;22;117804;-38
2024/03/03 05:38:30;;;;;;;8.03;4.37;;;14.20;99.90;;;14.47;52.04;99562.47;6073213;22;99936;-36
2024/03/03 05:40:56;;;;;;;10.20;4.20;;;14.10;99.90;;;14.39;52.28;99564.75;6087995;22;98904;-38
2024/03/03 05:43:22;;;;;;;6.90;3.80;;;14.00;99.90;;;14.28;52.78;99562.00;6080910;22;97561;-37
2024/03/03 05:45:47;;;;;;;8.33;4.70;;;13.90;99.90;;;14.22;52.68;99567.72;6119663;22;101564;-38
2024/03/03 05:48:16;;;;;;;8.30;4.20;;;13.90;99.90;;;14.09;53.10;99566.84;6042516;22;121558;-44
2024/03/03 05:50:42;;;;;;;7.83;4.53;;;13.80;99.90;;;14.08;53.26;99575.75;6064245;22;97444;-37
2024/03/03 05:53:07;;;;;;;9.27;4.57;;;13.70;99.90;;;14.11;52.99;99576.38;5990853;22;99873;-37
2024/03/03 05:55:35;;;;;;;12.77;4.73;;;13.70;99.90;;;14.11;52.83;99575.53;6079529;22;97667;-37
2024/03/03 05:58:01;;;;;;;2.17;1.80;;;13.70;99.90;;;14.13;53.02;99581.59;6068132;22;102063;-41
2024/03/03 06:00:29;;;;;;;6.73;4.10;;;13.70;99.90;;;13.98;52.93;99575.50;6076861;22;126773;-36
2024/03/03 06:02:57;;;;;;;8.50;4.43;;;13.60;99.90;;;13.87;53.41;99578.00;6093327;22;97826;-38
2024/03/03 06:05:23;;;;;;;8.63;4.63;;;13.50;99.90;;;13.76;53.87;99576.09;6089937;22;97430;-39
2024/03/03 06:07:49;;;;;;;7.57;3.97;;;13.40;99.90;;;13.69;54.28;99580.09;6091731;22;106055;-36
2024/03/03 06:10:18;;;;;;;9.47;4.13;;;13.30;99.90;;;13.65;53.95;99578.59;6082171;22;99238;-38
2024/03/03 06:12:46;;;;;;;8.13;4.27;;;13.20;99.90;;;13.73;54.28;99568.31;6046058;22;112819;-36
2024/03/03 06:15:11;;;;;;;8.30;4.20;;;13.30;99.90;;;13.69;54.29;99570.34;6071498;22;97439;-36
2024/03/03 06:17:41;;;;;;;8.87;4.40;;;13.30;99.90;;;13.67;54.51;99568.75;6075411;22;99326;-40
2024/03/03 06:20:08;;;;;;;11.47;4.90;;;13.20;99.90;;;13.67;54.65;99566.09;6088924;22;98858;-38
2024/03/03 06:22:34;;;;;;;9.77;4.07;;;13.20;99.90;;;13.64;54.44;99571.59;6069013;22;97637;-39
2024/03/03 06:24:59;;;;;;;3.63;2.20;;;13.20;99.90;;;13.79;54.07;99559.13;6085693;22;97418;-39
2024/03/03 06:27:25;;;;;;;3.47;1.97;;;13.20;99.90;;;13.96;53.66;99557.06;6076552;22;101235;-37
2024/03/03 06:29:54;;;;;;;3.17;1.73;;;13.40;99.90;;;14.14;53.32;99556.78;6054388;22;129739;-38
2024/03/03 06:32:20;;;;;;;9.10;4.03;;;13.70;99.90;;;14.28;52.86;99546.91;6091376;22;98159;-37
2024/03/03 06:34:48;;;;;;;6.37;3.10;;;13.90;99.90;;;14.32;52.42;99552.88;6064036;22;107808;-37
2024/03/03 06:37:15;;;;;;;7.37;3.83;;;14.00;99.90;;;14.38;52.32;99549.81;6076190;22;98408;-38
2024/03/03 06:39:42;;;;;;;9.00;3.80;;;14.00;99.90;;;14.08;52.36;99546.59;6105110;22;98100;-36
2024/03/03 06:42:08;;;;;;;7.73;4.30;;;13.80;99.90;;;13.87;52.83;99540.91;6095152;22;97531;-37
2024/03/03 06:44:34;;;;;;;6.97;4.50;;;13.60;99.90;;;14.11;52.57;99535.78;6108625;22;110258;-38
2024/03/03 06:47:03;;;;;;;9.17;4.00;;;13.80;99.90;;;14.02;52.82;99539.88;6090965;22;129709;-37
2024/03/03 06:49:28;;;;;;;10.13;5.07;;;13.70;99.90;;;13.97;52.91;99557.91;6080025;22;99024;-37
2024/03/03 06:51:54;;;;;;;7.13;4.23;;;13.60;99.90;;;13.97;52.97;99558.75;6088740;22;97547;-37
2024/03/03 06:54:20;;;;;;;7.37;4.10;;;13.60;99.90;;;14.06;53.30;99545.84;6121104;22;113536;-39
2024/03/03 06:56:46;;;;;;;4.97;2.90;;;13.70;99.90;;;14.21;52.61;99550.13;6068040;22;97836;-38
2024/03/03 06:59:11;;;;;;;5.03;3.13;;;13.80;99.90;;;14.36;52.53;99548.22;6078259;22;99060;-38
2024/03/03 07:01:37;;;;;;;7.03;4.20;;;14.00;99.90;;;14.41;51.25;99552.25;6106743;22;97355;-41
2024/03/03 07:06:50;;;;;;;4.93;3.07;;;14.20;99.90;;;14.63;51.47;99559.63;6095737;22;101314;-35
2024/03/03 07:09:18;;;;;;;8.53;4.07;;;14.40;99.90;;;14.69;51.04;99553.88;6090696;22;98017;-36
2024/03/03 07:11:44;;;;;;;8.10;4.30;;;14.40;99.90;;;14.75;51.31;99561.38;6107363;22;97444;-37
2024/03/03 07:14:10;;;;;;;1.97;1.60;;;14.50;99.90;;;14.89;50.94;99558.59;6107477;22;97488;-36
2024/03/03 07:16:36;;;;;;;1.87;1.33;;;14.70;99.90;;;15.03;50.58;99546.16;6077717;22;99462;-36
2024/03/03 07:19:01;;;;;;;9.20;3.73;;;14.90;99.90;;;14.88;50.57;99561.38;6093132;22;99449;-43
2024/03/03 07:21:31;;;;;;;9.07;5.07;;;14.80;99.90;;;14.82;50.18;99572.44;6075358;22;97618;-37
2024/03/03 07:24:00;;;;;;;7.47;4.03;;;14.60;99.90;;;14.85;50.31;99566.91;6082524;22;97597;-37
2024/03/03 07:26:26;;;;;;;8.63;4.70;;;14.60;99.90;;;14.71;51.23;99580.28;6108046;22;98212;-37
2024/03/03 07:28:52;;;;;;;8.90;4.13;;;14.50;99.90;;;14.57;52.29;99576.78;6108912;22;97454;-36
2024/03/03 07:31:18;;;;;;;6.87;3.93;;;14.40;99.90;;;14.47;52.85;99573.09;6094750;22;97270;-38
2024/03/03 07:33:47;;;;;;;5.27;3.53;;;14.20;99.90;;;14.46;52.09;99576.66;6103334;22;97261;-37
2024/03/03 07:36:13;;;;;;;8.57;4.90;;;14.20;99.90;;;14.40;52.75;99576.22;6107778;22;106937;-37
2024/03/03 07:38:39;;;;;;;7.90;4.57;;;14.10;99.90;;;14.36;52.41;99580.91;6109008;22;101336;-38
2024/03/03 07:41:04;;;;;;;9.23;4.67;;;14.10;99.90;;;14.32;53.63;99567.94;6093812;22;97615;-38
2024/03/03 07:43:30;;;;;;;10.20;4.53;;;14.10;99.90;;;14.32;53.60;99568.81;6071881;22;113297;-38
2024/03/03 07:45:56;;;;;;;6.87;4.07;;;14.00;99.90;;;14.48;52.55;99569.47;6121917;22;98370;-38
2024/03/03 07:48:22;;;;;;;11.30;4.70;;;14.10;99.90;;;14.33;53.82;99575.81;6053165;22;106452;-39
2024/03/03 07:50:48;;;;;;;10.50;4.47;;;14.10;99.90;;;14.23;54.76;99575.56;6023610;22;107521;-38
2024/03/03 07:53:16;;;;;;;7.87;4.27;;;14.00;99.90;;;14.18;55.83;99587.44;6065773;22;105538;-37
2024/03/03 07:55:43;;;;;;;8.20;4.57;;;13.90;99.90;;;14.11;55.76;99588.81;6109055;22;99581;-37
2024/03/03 07:58:09;;;;;;;9.40;4.60;;;13.90;99.90;;;14.06;57.03;99593.56;6106245;22;103141;-37
2024/03/03 08:00:37;;;;;;;8.70;4.60;;;13.80;99.90;;;14.03;56.46;99604.34;6108049;22;96921;-36
2024/03/03 08:03:05;;;;;;;9.30;4.90;;;13.80;99.90;;;13.99;54.20;99612.53;6091070;22;97606;-38
2024/03/03 08:05:32;;;;;;;9.47;4.90;;;13.80;99.90;;;14.08;53.77;99612.88;6109550;22;105774;-38
2024/03/03 08:07:58;;;;;;;7.10;4.07;;;13.80;99.90;;;14.11;53.27;99612.66;6114864;22;98154;-38
2024/03/03 08:10:24;;;;;;;8.03;4.53;;;13.90;99.90;;;14.06;53.53;99617.44;6107278;22;97438;-45
2024/03/03 08:12:53;;;;;;;8.93;4.30;;;13.90;99.90;;;14.09;53.63;99619.88;6109457;22;98026;-38
2024/03/03 08:15:19;;;;;;;9.67;4.43;;;13.90;99.90;;;14.09;53.43;99617.22;6110891;22;97952;-36
2024/03/03 08:17:44;;;;;;;8.80;5.37;;;13.90;99.90;;;14.11;53.97;99617.97;6104860;22;97982;-38
2024/03/03 08:20:11;;;;;;;9.13;5.23;;;14.00;99.90;;;14.04;52.93;99614.03;6109672;22;97436;-37
2024/03/03 08:22:41;;;;;;;10.23;5.00;;;14.00;99.90;;;14.19;52.89;99615.66;6106574;22;97774;-37
2024/03/03 08:25:09;;;;;;;9.80;5.33;;;14.00;99.90;;;14.23;53.25;99617.16;6083794;22;99575;-38
2024/03/03 08:27:35;;;;;;;9.57;4.40;;;14.10;99.90;;;14.26;53.65;99611.63;6128935;22;98666;-37
2024/03/03 08:30:11;;;;;;;11.60;5.93;;;14.10;99.90;;;14.29;52.95;99617.59;6107615;22;99839;-38
2024/03/03 08:32:38;;;;;;;9.60;4.63;;;14.20;99.90;;;14.32;53.38;99616.56;6103871;22;98627;-37
2024/03/03 08:35:05;;;;;;;10.47;5.17;;;14.20;99.90;;;14.34;52.95;99625.25;6097321;22;97944;-38
2024/03/03 08:37:32;;;;;;;9.30;4.77;;;14.20;99.90;;;14.36;52.70;99618.03;6060211;22;101881;-38
2024/03/03 08:39:58;;;;;;;8.53;4.87;;;14.20;99.90;;;14.36;53.02;99633.94;6113517;22;99759;-38
2024/03/03 08:42:24;;;;;;;8.27;5.00;;;14.20;99.90;;;14.39;52.62;99627.59;6075626;22;114458;-37
2024/03/03 08:44:49;;;;;;;11.97;5.40;;;14.30;99.90;;;14.34;52.84;99625.25;6113316;22;116775;-37
2024/03/03 08:47:15;;;;;;;7.60;5.13;;;14.30;99.90;;;14.39;52.91;99628.44;6116205;22;115801;-38
2024/03/03 08:49:41;;;;;;;7.37;4.43;;;14.30;99.90;;;14.41;53.21;99636.28;6080958;22;97942;-36
2024/03/03 08:52:08;;;;;;;9.37;4.93;;;14.30;99.90;;;14.43;52.78;99635.22;6108312;22;97590;-36
2024/03/03 08:54:35;;;;;;;11.73;5.27;;;14.30;99.90;;;14.44;53.32;99644.06;6097027;22;98002;-39
2024/03/03 08:57:04;;;;;;;8.20;4.10;;;14.30;99.90;;;14.44;52.59;99646.72;6091246;22;98395;-38
2024/03/03 08:59:30;;;;;;;7.97;4.87;;;14.30;99.90;;;14.47;52.64;99642.06;6091005;22;101840;-36
2024/03/03 09:01:55;;;;;;;8.20;4.37;;;14.40;99.90;;;14.49;53.04;99634.84;6090888;22;97683;-39
2024/03/03 09:04:21;;;;;;;9.03;5.20;;;14.40;99.90;;;14.49;52.62;99639.31;6106919;22;98981;-36
2024/03/03 09:06:47;;;;;;;7.63;4.00;;;14.40;99.90;;;14.63;52.30;99641.03;6084535;22;99438;-39
2024/03/03 09:09:16;;;;;;;10.40;5.27;;;14.40;99.90;;;14.63;52.10;99641.03;6081409;22;112968;-37
2024/03/03 09:11:44;;;;;;;7.00;3.63;;;14.50;99.90;;;14.68;52.17;99644.22;6100579;22;97373;-38
2024/03/03 09:14:13;;;;;;;5.57;2.97;;;14.50;99.90;;;14.75;52.14;99640.16;6093115;22;102268;-39
2024/03/03 09:16:41;;;;;;;8.23;4.37;;;14.60;99.90;;;14.74;51.98;99638.47;6051517;22;97554;-38
2024/03/03 09:19:07;;;;;;;11.27;4.93;;;14.60;99.90;;;14.78;52.16;99629.38;6089961;22;97338;-37
2024/03/03 09:21:34;;;;;;;9.63;5.20;;;14.70;99.90;;;14.74;51.63;99627.84;6097682;22;97301;-39
2024/03/03 09:24:03;;;;;;;10.07;4.90;;;14.60;99.90;;;14.71;52.41;99618.31;6047227;22;101446;-36
2024/03/03 09:26:34;;;;;;;7.60;5.20;;;14.60;99.90;;;14.71;52.76;99628.06;6105211;22;99034;-38
2024/03/03 09:29:00;;;;;;;8.47;4.87;;;14.60;99.90;;;14.73;52.64;99626.16;6079920;22;97538;-37
2024/03/03 09:31:25;;;;;;;11.80;4.83;;;14.60;99.90;;;14.75;52.11;99619.78;6104265;22;111666;-38
2024/03/03 09:33:51;;;;;;;7.90;4.83;;;14.70;99.90;;;14.81;52.52;99630.00;6107087;22;125193;-36
2024/03/03 09:36:17;;;;;;;9.33;4.67;;;14.80;99.90;;;14.83;52.36;99616.59;6095056;22;120570;-38
2024/03/03 09:38:43;;;;;;;8.37;5.40;;;14.80;99.90;;;14.83;52.09;99616.59;6107594;22;97381;-37
2024/03/03 09:41:09;;;;;;;9.20;4.97;;;14.80;99.90;;;14.85;51.66;99610.22;6105320;22;117057;-36
2024/03/03 09:43:38;;;;;;;6.63;4.40;;;14.80;99.90;;;15.02;51.33;99611.69;6070750;22;107004;-39
2024/03/03 09:46:04;;;;;;;2.27;1.80;;;14.90;99.90;;;15.25;50.31;99606.56;6079792;22;102267;-36
2024/03/03 09:48:32;;;;;;;6.30;4.03;;;15.20;99.90;;;15.35;50.35;99592.53;6104804;22;97768;-37
2024/03/03 09:50:59;;;;;;;3.87;2.37;;;15.40;99.90;;;15.54;49.55;99597.34;6078525;22;98288;-36
2024/03/03 09:53:26;;;;;;;2.70;1.73;;;15.60;99.90;;;15.66;49.43;99593.84;6087740;22;97418;-36
2024/03/03 09:55:55;;;;;;;6.13;2.97;;;15.80;99.90;;;15.79;49.00;99603.56;6132140;22;99612;-38
2024/03/03 09:58:21;;;;;;;9.20;5.17;;;15.90;99.90;;;15.84;49.24;99590.78;6103529;22;109119;-36
2024/03/03 10:00:51;;;;;;;9.20;4.30;;;16.00;99.90;;;15.92;48.81;99591.06;6109261;22;97480;-37
2024/03/03 10:03:20;;;;;;;7.87;4.67;;;16.00;99.90;;;16.00;48.62;99594.00;6072542;22;99447;-36
2024/03/03 10:05:46;;;;;;;5.47;4.10;;;16.10;99.90;;;15.99;48.82;99593.16;6106136;22;98851;-39
2024/03/03 10:08:18;;;;;;;4.53;2.70;;;16.10;99.90;;;16.05;48.12;99582.03;6122694;22;97640;-38
2024/03/03 10:10:47;;;;;;;5.67;3.60;;;16.20;99.90;;;16.15;48.29;99582.19;6104912;22;97404;-37
2024/03/03 10:13:18;;;;;;;2.50;1.60;;;16.20;99.90;;;16.21;47.85;99583.56;6091866;22;102028;-38
2024/03/03 10:15:47;;;;;;;1.60;1.30;;;16.30;99.90;;;16.26;47.58;99578.72;6106750;22;101575;-39